sensor_id;sensor_type;location;lat;lon;timestamp;pressure;altitude;pressure_sealevel;temperature;humidity
49689;BME280;70518;51.400;7.428;2023-07-22T00:00:48;158836.69;;;18.95;68.70
49689;BME280;70518;51.400;7.428;2023-07-22T00:03:13;158819.88;;;18.88;68.32
49689;BME280;70518;51.400;7.428;2023-07-22T00:05:41;158788.75;;;18.76;69.24
49689;BME280;70518;51.400;7.428;2023-07-22T00:08:07;158780.97;;;18.73;70.03
49689;BME280;70518;51.400;7.428;2023-07-22T00:10:32;158770.59;;;18.69;70.28
49689;BME280;70518;51.400;7.428;2023-07-22T00:12:57;158775.75;;;18.71;70.15
49689;BME280;70518;51.400;7.428;2023-07-22T00:15:22;158773.19;;;18.70;70.06
49689;BME280;70518;51.400;7.428;2023-07-22T00:17:50;158770.59;;;18.69;69.99
49689;BME280;70518;51.400;7.428;2023-07-22T00:20:16;158755.03;;;18.63;70.35
49689;BME280;70518;51.400;7.428;2023-07-22T00:22:42;158735.59;;;18.55;70.57
49689;BME280;70518;51.400;7.428;2023-07-22T00:25:09;158703.13;;;18.43;71.58
49689;BME280;70518;51.400;7.428;2023-07-22T00:27:39;158675.94;;;18.32;71.74
49689;BME280;70518;51.400;7.428;2023-07-22T00:30:06;158691.44;;;18.38;72.31
49689;BME280;70518;51.400;7.428;2023-07-22T00:32:31;158690.19;;;18.38;71.53
49689;BME280;70518;51.400;7.428;2023-07-22T00:34:57;158679.78;;;18.33;72.26
49689;BME280;70518;51.400;7.428;2023-07-22T00:37:22;158682.41;;;18.35;71.93
49689;BME280;70518;51.400;7.428;2023-07-22T00:39:47;158679.78;;;18.33;72.16
49689;BME280;70518;51.400;7.428;2023-07-22T00:42:13;158694.03;;;18.39;72.25
49689;BME280;70518;51.400;7.428;2023-07-22T00:44:38;158690.19;;;18.38;72.06
49689;BME280;70518;51.400;7.428;2023-07-22T00:47:04;158665.53;;;18.28;72.59
49689;BME280;70518;51.400;7.428;2023-07-22T00:49:29;158625.34;;;18.12;73.03
49689;BME280;70518;51.400;7.428;2023-07-22T00:51:58;158618.88;;;18.10;73.53
49689;BME280;70518;51.400;7.428;2023-07-22T00:54:25;158651.28;;;18.22;72.98
49689;BME280;70518;51.400;7.428;2023-07-22T00:56:51;158640.91;;;18.18;72.95
49689;BME280;70518;51.400;7.428;2023-07-22T00:59:16;158633.13;;;18.15;73.27
49689;BME280;70518;51.400;7.428;2023-07-22T01:01:42;158635.75;;;18.16;74.12
49689;BME280;70518;51.400;7.428;2023-07-22T01:04:07;158627.97;;;18.13;73.60
49689;BME280;70518;51.400;7.428;2023-07-22T01:06:34;158637.03;;;18.17;74.05
49689;BME280;70518;51.400;7.428;2023-07-22T01:09:00;158642.22;;;18.19;73.50
49689;BME280;70518;51.400;7.428;2023-07-22T01:11:25;158665.53;;;18.28;72.73
49689;BME280;70518;51.400;7.428;2023-07-22T01:13:51;158650.00;;;18.22;73.55
49689;BME280;70518;51.400;7.428;2023-07-22T01:16:17;158635.75;;;18.16;73.80
49689;BME280;70518;51.400;7.428;2023-07-22T01:18:42;158624.03;;;18.12;74.14
49689;BME280;70518;51.400;7.428;2023-07-22T01:21:08;158620.19;;;18.10;74.38
49689;BME280;70518;51.400;7.428;2023-07-22T01:23:35;158621.50;;;18.11;74.30
49689;BME280;70518;51.400;7.428;2023-07-22T01:26:01;158639.59;;;18.18;74.54
49689;BME280;70518;51.400;7.428;2023-07-22T01:28:27;158620.19;;;18.10;74.62
49689;BME280;70518;51.400;7.428;2023-07-22T01:30:52;158602.03;;;18.03;74.77
49689;BME280;70518;51.400;7.428;2023-07-22T01:33:18;158596.84;;;18.01;75.01
49689;BME280;70518;51.400;7.428;2023-07-22T01:35:43;158591.69;;;17.99;74.48
49689;BME280;70518;51.400;7.428;2023-07-22T01:38:08;158595.56;;;18.01;75.18
49689;BME280;70518;51.400;7.428;2023-07-22T01:40:34;158615.00;;;18.08;74.83
49689;BME280;70518;51.400;7.428;2023-07-22T01:42:59;158602.03;;;18.03;74.51
49689;BME280;70518;51.400;7.428;2023-07-22T01:45:24;158596.84;;;18.01;75.33
49689;BME280;70518;51.400;7.428;2023-07-22T01:47:50;158605.94;;;18.05;75.23
49689;BME280;70518;51.400;7.428;2023-07-22T01:50:16;158595.56;;;18.01;75.90
49689;BME280;70518;51.400;7.428;2023-07-22T01:52:43;158599.47;;;18.02;75.97
49689;BME280;70518;51.400;7.428;2023-07-22T01:55:09;158618.88;;;18.10;74.50
49689;BME280;70518;51.400;7.428;2023-07-22T01:57:35;158630.53;;;18.14;75.22
49689;BME280;70518;51.400;7.428;2023-07-22T02:00:01;158612.41;;;18.07;75.71
49689;BME280;70518;51.400;7.428;2023-07-22T02:02:26;158616.28;;;18.09;76.23
49689;BME280;70518;51.400;7.428;2023-07-22T02:04:52;158609.78;;;18.06;76.30
49689;BME280;70518;51.400;7.428;2023-07-22T02:07:17;158603.34;;;18.04;76.89
49689;BME280;70518;51.400;7.428;2023-07-22T02:09:42;158616.28;;;18.09;76.21
49689;BME280;70518;51.400;7.428;2023-07-22T02:12:08;158607.25;;;18.05;76.62
49689;BME280;70518;51.400;7.428;2023-07-22T02:14:33;158611.09;;;18.07;76.73
49689;BME280;70518;51.400;7.428;2023-07-22T02:16:58;158612.41;;;18.07;76.53
49689;BME280;70518;51.400;7.428;2023-07-22T02:19:24;158580.00;;;17.95;76.49
49689;BME280;70518;51.400;7.428;2023-07-22T02:21:49;158557.97;;;17.86;77.06
49689;BME280;70518;51.400;7.428;2023-07-22T02:24:14;158546.34;;;17.82;77.64
49689;BME280;70518;51.400;7.428;2023-07-22T02:26:40;158508.72;;;17.67;79.07
49689;BME280;70518;51.400;7.428;2023-07-22T02:29:05;158521.72;;;17.72;78.52
49689;BME280;70518;51.400;7.428;2023-07-22T02:31:30;158526.88;;;17.74;78.09
49689;BME280;70518;51.400;7.428;2023-07-22T02:33:55;158541.13;;;17.80;78.22
49689;BME280;70518;51.400;7.428;2023-07-22T02:36:21;158555.38;;;17.85;77.57
49689;BME280;70518;51.400;7.428;2023-07-22T02:38:46;158567.06;;;17.90;77.51
49689;BME280;70518;51.400;7.428;2023-07-22T02:41:11;158563.16;;;17.88;77.00
49689;BME280;70518;51.400;7.428;2023-07-22T02:43:37;158580.00;;;17.95;76.68
49689;BME280;70518;51.400;7.428;2023-07-22T02:46:03;158586.47;;;17.97;76.28
49689;BME280;70518;51.400;7.428;2023-07-22T02:48:30;158595.56;;;18.01;75.99
49689;BME280;70518;51.400;7.428;2023-07-22T02:51:05;158594.25;;;18.00;75.78
49689;BME280;70518;51.400;7.428;2023-07-22T02:53:32;158598.16;;;18.02;75.46
49689;BME280;70518;51.400;7.428;2023-07-22T02:55:58;158603.34;;;18.04;75.27
49689;BME280;70518;51.400;7.428;2023-07-22T02:58:25;158608.50;;;18.06;74.53
49689;BME280;70518;51.400;7.428;2023-07-22T03:00:50;158615.00;;;18.08;74.29
49689;BME280;70518;51.400;7.428;2023-07-22T03:03:16;158626.66;;;18.13;74.17
49689;BME280;70518;51.400;7.428;2023-07-22T03:05:41;158648.69;;;18.21;73.42
49689;BME280;70518;51.400;7.428;2023-07-22T03:08:06;158650.00;;;18.22;73.36
49689;BME280;70518;51.400;7.428;2023-07-22T03:10:32;158653.84;;;18.23;73.15
49689;BME280;70518;51.400;7.428;2023-07-22T03:12:57;158653.84;;;18.23;72.82
49689;BME280;70518;51.400;7.428;2023-07-22T03:15:25;158659.06;;;18.25;73.04
49689;BME280;70518;51.400;7.428;2023-07-22T03:17:54;158666.84;;;18.28;72.75
49689;BME280;70518;51.400;7.428;2023-07-22T03:20:25;158668.16;;;18.29;72.93
49689;BME280;70518;51.400;7.428;2023-07-22T03:22:50;158662.94;;;18.27;72.74
49689;BME280;70518;51.400;7.428;2023-07-22T03:25:16;158664.25;;;18.27;72.86
49689;BME280;70518;51.400;7.428;2023-07-22T03:27:45;158633.13;;;18.15;73.52
49689;BME280;70518;51.400;7.428;2023-07-22T03:30:16;158631.81;;;18.15;73.56
49689;BME280;70518;51.400;7.428;2023-07-22T03:32:46;158627.97;;;18.13;73.75
49689;BME280;70518;51.400;7.428;2023-07-22T03:35:16;158607.25;;;18.05;73.62
49689;BME280;70518;51.400;7.428;2023-07-22T03:37:41;158581.31;;;17.95;73.85
49689;BME280;70518;51.400;7.428;2023-07-22T03:40:07;158581.31;;;17.95;73.98
49689;BME280;70518;51.400;7.428;2023-07-22T03:42:42;158561.84;;;17.88;71.10
49689;BME280;70518;51.400;7.428;2023-07-22T03:45:08;158542.44;;;17.80;70.76
49689;BME280;70518;51.400;7.428;2023-07-22T03:47:35;158523.00;;;17.72;70.31
49689;BME280;70518;51.400;7.428;2023-07-22T03:50:00;158491.91;;;17.60;70.82
49689;BME280;70518;51.400;7.428;2023-07-22T03:52:25;158464.63;;;17.50;70.99
49689;BME280;70518;51.400;7.428;2023-07-22T03:54:51;158450.38;;;17.44;71.26
49689;BME280;70518;51.400;7.428;2023-07-22T03:57:16;158425.75;;;17.35;71.61
49689;BME280;70518;51.400;7.428;2023-07-22T03:59:41;158406.34;;;17.27;71.77
49689;BME280;70518;51.400;7.428;2023-07-22T04:02:07;158394.66;;;17.22;71.94
49689;BME280;70518;51.400;7.428;2023-07-22T04:04:32;158364.88;;;17.11;72.13
49689;BME280;70518;51.400;7.428;2023-07-22T04:06:57;158359.72;;;17.09;72.44
49689;BME280;70518;51.400;7.428;2023-07-22T04:09:22;158353.25;;;17.06;72.64
49689;BME280;70518;51.400;7.428;2023-07-22T04:11:48;158344.19;;;17.03;72.14
49689;BME280;70518;51.400;7.428;2023-07-22T04:14:13;158340.31;;;17.01;72.41
49689;BME280;70518;51.400;7.428;2023-07-22T04:16:39;158337.72;;;17.00;72.61
49689;BME280;70518;51.400;7.428;2023-07-22T04:19:04;158333.78;;;16.99;72.60
49689;BME280;70518;51.400;7.428;2023-07-22T04:21:29;158317.00;;;16.92;72.70
49689;BME280;70518;51.400;7.428;2023-07-22T04:23:55;158311.78;;;16.90;72.88
49689;BME280;70518;51.400;7.428;2023-07-22T04:26:20;158306.63;;;16.88;72.64
49689;BME280;70518;51.400;7.428;2023-07-22T04:28:45;158306.63;;;16.88;72.64
49689;BME280;70518;51.400;7.428;2023-07-22T04:31:10;158284.63;;;16.80;73.31
49689;BME280;70518;51.400;7.428;2023-07-22T04:33:36;158271.69;;;16.75;73.63
49689;BME280;70518;51.400;7.428;2023-07-22T04:36:01;158265.16;;;16.72;73.72
49689;BME280;70518;51.400;7.428;2023-07-22T04:38:27;158262.59;;;16.71;73.57
49689;BME280;70518;51.400;7.428;2023-07-22T04:40:52;158278.16;;;16.77;73.28
49689;BME280;70518;51.400;7.428;2023-07-22T04:43:17;158245.78;;;16.64;74.14
49689;BME280;70518;51.400;7.428;2023-07-22T04:45:46;158247.06;;;16.65;73.84
49689;BME280;70518;51.400;7.428;2023-07-22T04:48:15;158239.31;;;16.62;73.94
49689;BME280;70518;51.400;7.428;2023-07-22T04:50:41;158221.16;;;16.55;75.15
49689;BME280;70518;51.400;7.428;2023-07-22T04:53:09;158210.78;;;16.51;74.96
49689;BME280;70518;51.400;7.428;2023-07-22T04:55:35;158223.75;;;16.56;75.06
49689;BME280;70518;51.400;7.428;2023-07-22T04:58:02;158232.84;;;16.59;74.68
49689;BME280;70518;51.400;7.428;2023-07-22T05:00:27;158218.53;;;16.54;74.46
49689;BME280;70518;51.400;7.428;2023-07-22T05:02:54;158214.63;;;16.52;74.19
49689;BME280;70518;51.400;7.428;2023-07-22T05:05:21;158222.47;;;16.55;74.15
49689;BME280;70518;51.400;7.428;2023-07-22T05:07:47;158230.22;;;16.58;74.02
49689;BME280;70518;51.400;7.428;2023-07-22T05:10:14;158227.63;;;16.57;73.85
49689;BME280;70518;51.400;7.428;2023-07-22T05:12:39;158193.94;;;16.44;75.17
49689;BME280;70518;51.400;7.428;2023-07-22T05:15:06;158190.03;;;16.43;75.14
49689;BME280;70518;51.400;7.428;2023-07-22T05:17:32;158186.16;;;16.41;75.62
49689;BME280;70518;51.400;7.428;2023-07-22T05:19:57;158188.72;;;16.42;75.60
49689;BME280;70518;51.400;7.428;2023-07-22T05:22:23;158191.34;;;16.43;75.49
49689;BME280;70518;51.400;7.428;2023-07-22T05:24:48;158199.09;;;16.46;75.49
49689;BME280;70518;51.400;7.428;2023-07-22T05:27:13;158205.56;;;16.49;75.45
49689;BME280;70518;51.400;7.428;2023-07-22T05:29:39;158203.00;;;16.48;75.02
49689;BME280;70518;51.400;7.428;2023-07-22T05:32:05;158226.31;;;16.57;74.66
49689;BME280;70518;51.400;7.428;2023-07-22T05:34:31;158254.84;;;16.68;74.07
49689;BME280;70518;51.400;7.428;2023-07-22T05:36:56;158298.84;;;16.85;73.51
49689;BME280;70518;51.400;7.428;2023-07-22T05:39:21;158311.78;;;16.90;73.42
49689;BME280;70518;51.400;7.428;2023-07-22T05:41:46;158292.38;;;16.83;73.78
49689;BME280;70518;51.400;7.428;2023-07-22T05:44:12;158314.41;;;16.91;73.48
49689;BME280;70518;51.400;7.428;2023-07-22T05:46:37;158341.56;;;17.02;73.12
49689;BME280;70518;51.400;7.428;2023-07-22T05:49:03;158359.72;;;17.09;72.99
49689;BME280;70518;51.400;7.428;2023-07-22T05:51:28;158345.47;;;17.03;72.80
49689;BME280;70518;51.400;7.428;2023-07-22T05:53:54;158355.81;;;17.07;72.59
49689;BME280;70518;51.400;7.428;2023-07-22T05:56:19;158349.34;;;17.05;72.74
49689;BME280;70518;51.400;7.428;2023-07-22T05:58:44;158345.47;;;17.03;72.57
49689;BME280;70518;51.400;7.428;2023-07-22T06:01:10;158318.25;;;16.93;73.57
49689;BME280;70518;51.400;7.428;2023-07-22T06:03:37;158298.84;;;16.85;74.03
49689;BME280;70518;51.400;7.428;2023-07-22T06:06:02;158287.19;;;16.81;74.71
49689;BME280;70518;51.400;7.428;2023-07-22T06:08:27;158282.00;;;16.79;74.77
49689;BME280;70518;51.400;7.428;2023-07-22T06:10:53;158306.63;;;16.88;74.33
49689;BME280;70518;51.400;7.428;2023-07-22T06:13:18;158310.50;;;16.90;74.44
49689;BME280;70518;51.400;7.428;2023-07-22T06:15:43;158323.47;;;16.95;74.26
49689;BME280;70518;51.400;7.428;2023-07-22T06:18:08;158302.72;;;16.87;74.67
49689;BME280;70518;51.400;7.428;2023-07-22T06:20:34;158288.47;;;16.81;75.42
49689;BME280;70518;51.400;7.428;2023-07-22T06:23:01;158302.72;;;16.87;74.86
49689;BME280;70518;51.400;7.428;2023-07-22T06:25:26;158311.78;;;16.90;75.16
49689;BME280;70518;51.400;7.428;2023-07-22T06:27:52;158332.56;;;16.98;74.89
49689;BME280;70518;51.400;7.428;2023-07-22T06:30:19;158333.78;;;16.99;75.31
49689;BME280;70518;51.400;7.428;2023-07-22T06:32:44;158333.78;;;16.99;75.21
49689;BME280;70518;51.400;7.428;2023-07-22T06:35:09;158322.16;;;16.94;75.78
49689;BME280;70518;51.400;7.428;2023-07-22T06:37:35;158320.88;;;16.94;75.34
49689;BME280;70518;51.400;7.428;2023-07-22T06:40:00;158318.25;;;16.93;75.71
49689;BME280;70518;51.400;7.428;2023-07-22T06:42:25;158327.34;;;16.96;75.70
49689;BME280;70518;51.400;7.428;2023-07-22T06:44:52;158337.72;;;17.00;75.19
49689;BME280;70518;51.400;7.428;2023-07-22T06:47:18;158323.47;;;16.95;75.87
49689;BME280;70518;51.400;7.428;2023-07-22T06:49:43;158332.56;;;16.98;75.65
49689;BME280;70518;51.400;7.428;2023-07-22T06:52:08;158366.19;;;17.11;75.55
49689;BME280;70518;51.400;7.428;2023-07-22T06:54:34;158389.50;;;17.20;74.70
49689;BME280;70518;51.400;7.428;2023-07-22T06:57:00;158406.34;;;17.27;74.74
49689;BME280;70518;51.400;7.428;2023-07-22T06:59:25;158419.28;;;17.32;74.36
49689;BME280;70518;51.400;7.428;2023-07-22T07:01:54;158412.81;;;17.30;74.45
49689;BME280;70518;51.400;7.428;2023-07-22T07:04:20;158421.91;;;17.33;74.45
49689;BME280;70518;51.400;7.428;2023-07-22T07:06:45;158425.75;;;17.35;74.28
49689;BME280;70518;51.400;7.428;2023-07-22T07:09:11;158446.53;;;17.43;73.73
49689;BME280;70518;51.400;7.428;2023-07-22T07:11:37;158449.09;;;17.44;73.61
49689;BME280;70518;51.400;7.428;2023-07-22T07:14:02;158478.94;;;17.55;73.05
49689;BME280;70518;51.400;7.428;2023-07-22T07:16:30;158482.84;;;17.57;72.99
49689;BME280;70518;51.400;7.428;2023-07-22T07:18:57;158511.31;;;17.68;73.27
49689;BME280;70518;51.400;7.428;2023-07-22T07:21:23;158533.34;;;17.76;72.96
49689;BME280;70518;51.400;7.428;2023-07-22T07:23:49;158550.19;;;17.83;71.77
49689;BME280;70518;51.400;7.428;2023-07-22T07:26:15;158583.91;;;17.96;71.68
49689;BME280;70518;51.400;7.428;2023-07-22T07:28:41;158605.94;;;18.05;71.00
49689;BME280;70518;51.400;7.428;2023-07-22T07:31:06;158635.75;;;18.16;68.62
49689;BME280;70518;51.400;7.428;2023-07-22T07:33:32;158640.91;;;18.18;68.65
49689;BME280;70518;51.400;7.428;2023-07-22T07:35:58;158624.03;;;18.12;69.05
49689;BME280;70518;51.400;7.428;2023-07-22T07:38:23;158598.16;;;18.02;69.49
49689;BME280;70518;51.400;7.428;2023-07-22T07:41:07;158613.72;;;18.08;69.17
49689;BME280;70518;51.400;7.428;2023-07-22T07:43:37;158595.56;;;18.01;69.61
49689;BME280;70518;51.400;7.428;2023-07-22T07:46:22;158639.59;;;18.18;67.64
49689;BME280;70518;51.400;7.428;2023-07-22T07:48:53;158637.03;;;18.17;68.24
49689;BME280;70518;51.400;7.428;2023-07-22T07:51:19;158682.41;;;18.35;68.21
49689;BME280;70518;51.400;7.428;2023-07-22T07:53:46;158699.22;;;18.41;67.64
49689;BME280;70518;51.400;7.428;2023-07-22T07:56:16;158733.00;;;18.54;66.41
49689;BME280;70518;51.400;7.428;2023-07-22T07:58:42;158760.19;;;18.65;65.23
49689;BME280;70518;51.400;7.428;2023-07-22T08:01:07;158791.31;;;18.77;64.21
49689;BME280;70518;51.400;7.428;2023-07-22T08:03:34;158817.25;;;18.87;64.13
49689;BME280;70518;51.400;7.428;2023-07-22T08:06:00;158830.22;;;18.92;63.90
49689;BME280;70518;51.400;7.428;2023-07-22T08:08:26;158845.78;;;18.98;63.46
49689;BME280;70518;51.400;7.428;2023-07-22T08:11:02;158862.63;;;19.05;63.12
49689;BME280;70518;51.400;7.428;2023-07-22T08:13:28;158875.59;;;19.10;63.17
49689;BME280;70518;51.400;7.428;2023-07-22T08:15:55;158869.13;;;19.07;62.12
49689;BME280;70518;51.400;7.428;2023-07-22T08:18:21;158884.69;;;19.13;61.32
49689;BME280;70518;51.400;7.428;2023-07-22T08:20:46;158891.16;;;19.16;62.16
49689;BME280;70518;51.400;7.428;2023-07-22T08:23:13;158923.59;;;19.28;61.21
49689;BME280;70518;51.400;7.428;2023-07-22T08:25:38;158946.94;;;19.37;60.92
49689;BME280;70518;51.400;7.428;2023-07-22T08:28:03;158961.25;;;19.43;60.82
49689;BME280;70518;51.400;7.428;2023-07-22T08:30:29;158972.94;;;19.48;60.67
49689;BME280;70518;51.400;7.428;2023-07-22T08:32:54;158989.75;;;19.54;59.88
49689;BME280;70518;51.400;7.428;2023-07-22T08:35:19;159015.72;;;19.64;59.26
49689;BME280;70518;51.400;7.428;2023-07-22T08:37:44;159032.59;;;19.71;58.03
49689;BME280;70518;51.400;7.428;2023-07-22T08:40:12;159035.16;;;19.72;58.29
49689;BME280;70518;51.400;7.428;2023-07-22T08:42:37;159044.25;;;19.75;58.02
49689;BME280;70518;51.400;7.428;2023-07-22T08:45:03;159053.34;;;19.79;57.20
49689;BME280;70518;51.400;7.428;2023-07-22T08:47:32;159063.75;;;19.83;57.88
49689;BME280;70518;51.400;7.428;2023-07-22T08:50:01;159066.31;;;19.84;58.15
49689;BME280;70518;51.400;7.428;2023-07-22T08:52:27;159083.19;;;19.90;57.29
49689;BME280;70518;51.400;7.428;2023-07-22T08:54:53;159087.09;;;19.92;56.67
49689;BME280;70518;51.400;7.428;2023-07-22T08:57:20;159119.50;;;20.05;56.80
49689;BME280;70518;51.400;7.428;2023-07-22T08:59:45;159149.31;;;20.16;56.03
49689;BME280;70518;51.400;7.428;2023-07-22T09:02:14;159172.75;;;20.25;56.10
49689;BME280;70518;51.400;7.428;2023-07-22T09:04:40;159184.44;;;20.30;56.23
49689;BME280;70518;51.400;7.428;2023-07-22T09:07:10;159206.50;;;20.38;55.45
49689;BME280;70518;51.400;7.428;2023-07-22T09:09:36;159220.78;;;20.44;55.56
49689;BME280;70518;51.400;7.428;2023-07-22T09:12:02;159249.31;;;20.55;55.43
49689;BME280;70518;51.400;7.428;2023-07-22T09:14:27;159271.41;;;20.64;54.54
49689;BME280;70518;51.400;7.428;2023-07-22T09:16:53;159299.97;;;20.75;53.43
49689;BME280;70518;51.400;7.428;2023-07-22T09:19:18;159297.34;;;20.74;53.13
49689;BME280;70518;51.400;7.428;2023-07-22T09:21:44;159331.13;;;20.87;53.05
49689;BME280;70518;51.400;7.428;2023-07-22T09:24:23;159344.09;;;20.92;52.94
49689;BME280;70518;51.400;7.428;2023-07-22T09:26:49;159368.75;;;21.01;52.17
49689;BME280;70518;51.400;7.428;2023-07-22T09:29:15;159385.69;;;21.08;51.94
49689;BME280;70518;51.400;7.428;2023-07-22T09:31:51;159406.44;;;21.16;50.05
49689;BME280;70518;51.400;7.428;2023-07-22T09:34:17;159406.44;;;21.16;49.18
49689;BME280;70518;51.400;7.428;2023-07-22T09:36:53;159410.31;;;21.18;49.74
49689;BME280;70518;51.400;7.428;2023-07-22T09:39:19;159420.72;;;21.22;49.90
49689;BME280;70518;51.400;7.428;2023-07-22T09:41:44;159445.41;;;21.31;49.42
49689;BME280;70518;51.400;7.428;2023-07-22T09:44:10;159441.50;;;21.30;49.86
49689;BME280;70518;51.400;7.428;2023-07-22T09:46:39;159440.19;;;21.29;49.93
49689;BME280;70518;51.400;7.428;2023-07-22T09:49:06;159464.88;;;21.39;50.40
49689;BME280;70518;51.400;7.428;2023-07-22T09:51:37;159473.97;;;21.42;50.21
49689;BME280;70518;51.400;7.428;2023-07-22T09:54:03;159528.50;;;21.64;49.85
49689;BME280;70518;51.400;7.428;2023-07-22T09:56:29;159531.13;;;21.65;50.22
49689;BME280;70518;51.400;7.428;2023-07-22T09:58:54;159528.50;;;21.64;50.10
49689;BME280;70518;51.400;7.428;2023-07-22T10:01:23;159519.41;;;21.60;50.35
49689;BME280;70518;51.400;7.428;2023-07-22T10:03:53;159528.50;;;21.64;50.00
49689;BME280;70518;51.400;7.428;2023-07-22T10:06:21;159554.44;;;21.74;49.52
49689;BME280;70518;51.400;7.428;2023-07-22T10:08:48;159576.56;;;21.82;49.27
49689;BME280;70518;51.400;7.428;2023-07-22T10:11:14;159598.69;;;21.91;49.21
49689;BME280;70518;51.400;7.428;2023-07-22T10:13:39;159610.38;;;21.95;49.60
49689;BME280;70518;51.400;7.428;2023-07-22T10:16:05;159538.91;;;21.68;49.90
49689;BME280;70518;51.400;7.428;2023-07-22T10:18:32;159561.00;;;21.76;49.14
49689;BME280;70518;51.400;7.428;2023-07-22T10:20:57;159568.78;;;21.79;49.34
49689;BME280;70518;51.400;7.428;2023-07-22T10:23:25;159570.03;;;21.80;48.88
49689;BME280;70518;51.400;7.428;2023-07-22T10:25:51;159589.53;;;21.87;48.70
49689;BME280;70518;51.400;7.428;2023-07-22T10:28:19;159612.97;;;21.96;48.91
49689;BME280;70518;51.400;7.428;2023-07-22T10:30:45;159641.53;;;22.07;48.93
49689;BME280;70518;51.400;7.428;2023-07-22T10:33:11;159672.72;;;22.20;47.96
49689;BME280;70518;51.400;7.428;2023-07-22T10:35:41;159694.81;;;22.28;48.61
49689;BME280;70518;51.400;7.428;2023-07-22T10:38:13;159748.06;;;22.49;48.10
49689;BME280;70518;51.400;7.428;2023-07-22T10:40:54;159809.19;;;22.73;47.95
49689;BME280;70518;51.400;7.428;2023-07-22T10:43:28;159849.47;;;22.88;47.41
49689;BME280;70518;51.400;7.428;2023-07-22T10:45:56;159859.91;;;22.92;46.60
49689;BME280;70518;51.400;7.428;2023-07-22T10:48:26;159879.38;;;23.00;45.16
49689;BME280;70518;51.400;7.428;2023-07-22T10:50:57;159891.03;;;23.04;45.04
49689;BME280;70518;51.400;7.428;2023-07-22T10:56:07;159919.69;;;23.15;44.48
49689;BME280;70518;51.400;7.428;2023-07-22T11:04:05;159897.59;;;23.07;44.35
49689;BME280;70518;51.400;7.428;2023-07-22T11:06:30;159913.19;;;23.13;44.29
49689;BME280;70518;51.400;7.428;2023-07-22T11:08:56;159926.16;;;23.18;44.63
49689;BME280;70518;51.400;7.428;2023-07-22T11:11:36;159943.06;;;23.24;45.14
49689;BME280;70518;51.400;7.428;2023-07-22T11:14:31;159965.16;;;23.33;43.81
49689;BME280;70518;51.400;7.428;2023-07-22T11:16:58;159959.94;;;23.31;43.41
49689;BME280;70518;51.400;7.428;2023-07-22T11:19:24;159983.38;;;23.40;42.56
49689;BME280;70518;51.400;7.428;2023-07-22T11:21:51;159987.31;;;23.42;43.33
49689;BME280;70518;51.400;7.428;2023-07-22T11:24:18;159998.97;;;23.46;43.26
49689;BME280;70518;51.400;7.428;2023-07-22T11:26:47;159970.34;;;23.35;43.18
49689;BME280;70518;51.400;7.428;2023-07-22T11:29:14;160036.69;;;23.61;42.54
49689;BME280;70518;51.400;7.428;2023-07-22T11:31:44;160031.50;;;23.59;41.98
49689;BME280;70518;51.400;7.428;2023-07-22T11:34:14;160030.19;;;23.58;42.17
49689;BME280;70518;51.400;7.428;2023-07-22T11:36:40;160035.44;;;23.60;42.14
49689;BME280;70518;51.400;7.428;2023-07-22T11:39:11;160054.91;;;23.68;41.05
49689;BME280;70518;51.400;7.428;2023-07-22T11:41:38;160044.47;;;23.64;41.66
49689;BME280;70518;51.400;7.428;2023-07-22T11:44:06;159991.19;;;23.43;41.97
49689;BME280;70518;51.400;7.428;2023-07-22T11:46:34;160009.41;;;23.50;41.56
49689;BME280;70518;51.400;7.428;2023-07-22T11:49:00;160079.63;;;23.77;41.68
49689;BME280;70518;51.400;7.428;2023-07-22T11:51:25;160144.59;;;24.03;41.51
49689;BME280;70518;51.400;7.428;2023-07-22T11:53:53;160214.88;;;24.30;40.43
49689;BME280;70518;51.400;7.428;2023-07-22T11:56:23;160251.31;;;24.44;40.29
49689;BME280;70518;51.400;7.428;2023-07-22T11:58:53;160303.38;;;24.64;40.08
49689;BME280;70518;51.400;7.428;2023-07-22T12:01:19;160311.16;;;24.67;39.85
49689;BME280;70518;51.400;7.428;2023-07-22T12:03:44;160333.28;;;24.76;39.78
49689;BME280;70518;51.400;7.428;2023-07-22T12:06:10;160363.25;;;24.88;39.44
49689;BME280;70518;51.400;7.428;2023-07-22T12:08:37;160276.03;;;24.54;40.31
49689;BME280;70518;51.400;7.428;2023-07-22T12:11:07;160242.25;;;24.41;40.50
49689;BME280;70518;51.400;7.428;2023-07-22T12:13:36;160264.34;;;24.49;39.34
49689;BME280;70518;51.400;7.428;2023-07-22T12:16:03;160272.16;;;24.52;39.32
49689;BME280;70518;51.400;7.428;2023-07-22T12:18:41;160274.72;;;24.53;39.74
49689;BME280;70518;51.400;7.428;2023-07-22T12:21:06;160273.47;;;24.53;39.35
49689;BME280;70518;51.400;7.428;2023-07-22T12:23:32;160286.44;;;24.58;39.41
49689;BME280;70518;51.400;7.428;2023-07-22T12:25:58;160292.94;;;24.60;39.38
49689;BME280;70518;51.400;7.428;2023-07-22T12:28:23;160346.31;;;24.81;38.99
49689;BME280;70518;51.400;7.428;2023-07-22T12:30:49;160389.25;;;24.98;37.90
49689;BME280;70518;51.400;7.428;2023-07-22T12:33:14;160386.66;;;24.97;37.28
49689;BME280;70518;51.400;7.428;2023-07-22T12:35:39;160348.94;;;24.82;36.81
49689;BME280;70518;51.400;7.428;2023-07-22T12:38:04;160376.25;;;24.93;36.42
49689;BME280;70518;51.400;7.428;2023-07-22T12:40:30;160359.31;;;24.86;36.84
49689;BME280;70518;51.400;7.428;2023-07-22T12:42:55;160365.81;;;24.88;36.63
49689;BME280;70518;51.400;7.428;2023-07-22T12:45:20;160384.06;;;24.96;36.56
49689;BME280;70518;51.400;7.428;2023-07-22T12:47:45;160399.66;;;25.02;36.82
49689;BME280;70518;51.400;7.428;2023-07-22T12:50:12;160390.56;;;24.98;35.42
49689;BME280;70518;51.400;7.428;2023-07-22T12:52:37;160406.16;;;25.04;35.14
49689;BME280;70518;51.400;7.428;2023-07-22T12:55:03;160413.97;;;25.07;35.60